Portada
METAR-TAF:

METAR-TAF

Aeroports :

Guwahati, Índia

latitud: 26-06-22N, longitud: 091-35-09E, altitud: 49 m

Observació

L'informe es va fer fa 19 minuts, a les 00:31 UTC
Vent calma
Temperatura 17°C
Humitat 94%
Pressió 1011 hPa
Visibilitat: 1500 m
Núvols disperses a una alçada de 1800 ft
Cel ennuvolat a una alçada de 10000 ft
boirina

METAR: VEGT 200031Z 00000KT 1500 BR SCT018 BKN100 17/16 Q1011 NOSIG

Hora: 06:20 (00:50 UTC)

Pronòstic

L'informe es va fer fa 1 hora i 50 minuts, a les 23:00 UTC
Pronòstic vàlid del 20 a les 00 UTC al 20 a les 09 UTC
Vent kt del Nord
Visibilitat: 2000 m
Escasses núvols a una alçada de 1800 ft
boirina
Evolucionant progressivament
l' 20 a les 03 UTC al 20 a les 05 UTC
Vent 5 kt del Nord
Visibilitat: 3000 m
boirina, calitja
Evolucionant progressivament
l' 20 a les 07 UTC al 20 a les 09 UTC
Vent 6 kt del Oest/Nord-Oest
Visibilitat: 4000 m
calitja

TAF: VEGT 192300Z 2000/2009 00000KT 2000 BR FEW018 BECMG 2003/2005 35005KT 3000 BR HZ BECMG 2007/2009 29006KT 4000 HZ

Observacions i pronòstics meteorològics de més de 4000 aeroports (METAR i TAF).

Les estacions disponibles són els punts grocs i vermells al mapa.

Posi el ratolí al punt desitjat per veure el nom de l'estació.

Feu clic per veure les observacions i els pronòstics meteorològics.

Per canviar el mapa: feu clic els botons verds amb una creu de color negre per apropar; al botó verd amb un guió per allunyar la imatge; o en les fletxes verdes per a mapes adjacents.


METAR-TAF: